Saint-Leon-De-Standon, Canada
Current Conditions -  °F | °C
As of 5:44 AM on Tuesday 27 Jan 2015 (Local Time) from CYQB Reporting Station
Blowing Snow Blowing Snow  
Wind Chill: -16°   Ceiling: 18000
Heat Index:   Visibility: 10mi
Dew Point: -6°   Wind: 22mph
Humidity: 61%   Direction: 60°ENE
Pressure: 30.19"   Gusts: 33mph
Location:  46.48°N, 70.62°W
Report Text: CYQB 271044Z 06019G29KT 10SM BLSN FEW012 SCT020 BKN180 M15/M21 A3019 RMK SF1SC2AC3 SLP232
Loading
Personal Weather Stations






























Interactive Weather Map New forecast layout! Learn more

10-Day Weather Forecast

Advertisements
Track Severe Weather on mobile